createdAt,value
2022-09-28T00:00:19.773Z,4.38
2022-09-28T00:02:46.517Z,4.38
2022-09-28T00:05:13.181Z,4.41
2022-09-28T00:07:39.849Z,4.41
2022-09-28T00:10:06.614Z,4.42
2022-09-28T00:12:33.129Z,4.51
2022-09-28T00:14:59.752Z,4.51
2022-09-28T00:17:26.378Z,4.52
2022-09-28T00:19:53.108Z,4.54
2022-09-28T00:22:20.173Z,4.57
2022-09-28T00:24:46.873Z,4.65
2022-09-28T00:27:13.776Z,4.73
2022-09-28T00:29:40.547Z,4.76
2022-09-28T00:32:11.165Z,4.77
2022-09-28T00:34:41.998Z,4.85
2022-09-28T00:37:08.673Z,4.75
2022-09-28T00:39:35.896Z,4.76
2022-09-28T00:42:03.023Z,4.73
2022-09-28T00:44:41.759Z,4.84
2022-09-28T00:47:39.269Z,4.83
2022-09-28T00:50:24.520Z,4.83
2022-09-28T00:53:01.385Z,4.85
2022-09-28T00:55:50.775Z,4.85
2022-09-28T00:58:38.508Z,4.89
2022-09-28T01:01:05.234Z,4.88
2022-09-28T01:03:32.112Z,4.88
2022-09-28T01:05:59.831Z,4.86
2022-09-28T01:08:26.538Z,4.77
2022-09-28T01:10:53.336Z,4.84
2022-09-28T01:13:20.045Z,4.78
2022-09-28T01:15:53.681Z,4.85
2022-09-28T01:18:25.628Z,4.84
2022-09-28T01:21:05.554Z,4.88
2022-09-28T01:24:02.737Z,4.85
2022-09-28T01:26:56.941Z,4.83
2022-09-28T01:29:43.741Z,4.84
2022-09-28T01:32:32.033Z,4.83
2022-09-28T01:35:13.466Z,4.87
2022-09-28T01:37:53.100Z,4.86
2022-09-28T01:40:21.775Z,4.92
2022-09-28T01:42:50.978Z,4.95
2022-09-28T01:45:43.497Z,4.96
2022-09-28T01:48:10.129Z,4.96
2022-09-28T01:50:38.477Z,4.93
2022-09-28T01:53:29.671Z,4.85
2022-09-28T01:55:59.294Z,4.79
2022-09-28T01:59:01.331Z,4.92
2022-09-28T02:01:33.518Z,4.86
2022-09-28T02:04:23.373Z,4.74
2022-09-28T02:06:56.789Z,4.77
2022-09-28T02:09:33.901Z,4.86
2022-09-28T02:12:06.570Z,4.97
2022-09-28T02:14:33.293Z,4.98
2022-09-28T02:16:59.972Z,4.98
2022-09-28T02:19:28.001Z,4.92
2022-09-28T02:22:19.446Z,4.90
2022-09-28T02:25:07.650Z,4.96
2022-09-28T02:27:46.000Z,4.94
2022-09-28T02:30:12.714Z,4.91
2022-09-28T02:32:41.141Z,4.92
2022-09-28T02:35:16.112Z,4.93
2022-09-28T02:37:42.797Z,4.99
2022-09-28T02:40:19.504Z,4.96
2022-09-28T02:42:49.360Z,4.96
2022-09-28T02:45:23.704Z,4.92
2022-09-28T02:47:59.305Z,5.00
2022-09-28T02:50:30.171Z,5.00
2022-09-28T02:53:11.776Z,5.06
2022-09-28T02:56:16.812Z,5.18
2022-09-28T02:59:02.248Z,5.26
2022-09-28T03:01:48.996Z,5.36
2022-09-28T03:04:32.219Z,5.31
2022-09-28T03:07:14.419Z,5.40
2022-09-28T03:09:45.672Z,5.19
2022-09-28T03:12:13.331Z,5.15
2022-09-28T03:14:39.908Z,5.13
2022-09-28T03:17:06.498Z,5.23
2022-09-28T03:19:34.118Z,5.29
2022-09-28T03:22:00.977Z,5.31
2022-09-28T03:24:27.618Z,5.40
2022-09-28T03:26:54.282Z,5.43
2022-09-28T03:29:20.859Z,5.46
2022-09-28T03:31:47.612Z,5.55
2022-09-28T03:34:14.270Z,5.54
2022-09-28T03:36:40.956Z,5.53
2022-09-28T03:39:07.540Z,5.53
2022-09-28T03:41:34.434Z,5.60
2022-09-28T03:44:01.171Z,5.60
2022-09-28T03:46:27.837Z,5.63
2022-09-28T03:48:56.817Z,5.67
2022-09-28T03:51:23.440Z,5.66
2022-09-28T03:53:50.198Z,5.64
2022-09-28T03:56:16.750Z,5.66
2022-09-28T03:58:43.469Z,5.67
2022-09-28T04:01:16.445Z,5.73
2022-09-28T04:03:44.027Z,5.68
2022-09-28T04:06:10.853Z,5.67
2022-09-28T04:08:37.406Z,5.68
2022-09-28T04:11:04.074Z,5.64
2022-09-28T04:13:31.156Z,5.64
2022-09-28T04:15:59.294Z,5.62
2022-09-28T04:18:26.321Z,5.67
2022-09-28T04:20:59.735Z,5.68
2022-09-28T04:23:27.777Z,5.63
2022-09-28T04:25:54.632Z,5.63
2022-09-28T04:28:21.756Z,5.68
2022-09-28T04:30:48.702Z,5.67
2022-09-28T04:33:15.387Z,5.72
2022-09-28T04:35:41.922Z,5.69
2022-09-28T04:38:08.583Z,5.60
2022-09-28T04:40:35.134Z,5.68
2022-09-28T04:43:02.221Z,5.70
2022-09-28T04:45:28.896Z,5.62
2022-09-28T04:47:55.567Z,5.63
2022-09-28T04:50:22.513Z,5.61
2022-09-28T04:52:49.149Z,5.58
2022-09-28T04:55:16.149Z,5.58
2022-09-28T04:57:42.740Z,5.64
2022-09-28T05:00:09.901Z,5.64
2022-09-28T05:02:36.903Z,5.70
2022-09-28T05:05:03.656Z,5.72
2022-09-28T05:07:31.179Z,5.70
2022-09-28T05:09:58.258Z,5.72
2022-09-28T05:12:24.887Z,5.78
2022-09-28T05:14:51.573Z,5.83
2022-09-28T05:17:18.169Z,5.83
2022-09-28T05:19:44.753Z,5.82
2022-09-28T05:22:11.495Z,5.88
2022-09-28T05:24:38.705Z,5.92
2022-09-28T05:27:06.121Z,5.90
2022-09-28T05:29:32.880Z,5.95
2022-09-28T05:31:59.647Z,6.02
2022-09-28T05:34:26.312Z,6.11
2022-09-28T05:36:52.882Z,6.10
2022-09-28T05:39:19.767Z,6.14
2022-09-28T05:41:46.415Z,6.15
2022-09-28T05:44:13.062Z,6.26
2022-09-28T05:46:39.601Z,6.21
2022-09-28T05:49:06.329Z,6.30
2022-09-28T05:51:32.906Z,6.31
2022-09-28T05:54:04.620Z,6.31
2022-09-28T05:56:32.690Z,6.34
2022-09-28T05:58:59.678Z,6.42
2022-09-28T06:01:26.489Z,6.37
2022-09-28T06:03:53.190Z,6.43
2022-09-28T06:06:21.176Z,6.43
2022-09-28T06:08:47.836Z,6.40
2022-09-28T06:11:14.469Z,6.47
2022-09-28T06:13:41.117Z,6.47
2022-09-28T06:16:08.067Z,6.47
2022-09-28T06:18:35.009Z,6.53
2022-09-28T06:21:01.723Z,6.57
2022-09-28T06:23:29.033Z,6.57
2022-09-28T06:25:55.628Z,6.62
2022-09-28T06:28:22.160Z,6.59
2022-09-28T06:30:48.807Z,6.60
2022-09-28T06:33:15.459Z,6.61
2022-09-28T06:35:42.295Z,6.58
2022-09-28T06:38:09.060Z,6.58
2022-09-28T06:40:35.805Z,6.61
2022-09-28T06:43:05.583Z,6.60
2022-09-28T06:45:32.460Z,6.52
2022-09-28T06:47:59.900Z,6.52
2022-09-28T06:50:28.243Z,6.52
2022-09-28T06:52:54.987Z,6.50
2022-09-28T06:55:23.060Z,6.53
2022-09-28T06:57:59.959Z,6.61
2022-09-28T07:00:30.839Z,6.57
2022-09-28T07:02:57.595Z,6.60
2022-09-28T07:05:24.264Z,6.59
2022-09-28T07:07:50.845Z,6.63
2022-09-28T07:10:17.536Z,6.56
2022-09-28T07:12:44.332Z,6.59
2022-09-28T07:15:11.112Z,6.54
2022-09-28T07:17:50.799Z,6.52
2022-09-28T07:20:21.479Z,6.61
2022-09-28T07:22:53.201Z,6.52
2022-09-28T07:25:19.736Z,6.55
2022-09-28T07:27:46.589Z,6.60
2022-09-28T07:30:13.840Z,6.60
2022-09-28T07:32:40.487Z,6.60
2022-09-28T07:35:07.476Z,6.63
2022-09-28T07:37:37.488Z,6.72
2022-09-28T07:40:04.840Z,6.74
2022-09-28T07:42:31.715Z,6.87
2022-09-28T07:44:58.744Z,6.98
2022-09-28T07:47:27.766Z,6.99
2022-09-28T07:49:56.706Z,7.00
2022-09-28T07:52:23.643Z,7.03
2022-09-28T07:54:50.959Z,7.00
2022-09-28T07:57:18.294Z,6.98
2022-09-28T07:59:46.937Z,7.02
2022-09-28T08:02:13.721Z,7.00
2022-09-28T08:04:40.357Z,6.99
2022-09-28T08:07:10.721Z,6.99
2022-09-28T08:09:37.540Z,7.01
2022-09-28T08:12:04.532Z,7.03
2022-09-28T08:14:32.006Z,7.00
2022-09-28T08:16:59.104Z,6.96
2022-09-28T08:19:25.818Z,6.93
2022-09-28T08:21:52.465Z,6.99
2022-09-28T08:24:19.304Z,6.98
2022-09-28T08:26:46.176Z,6.99
2022-09-28T08:29:12.875Z,6.94
2022-09-28T08:31:39.649Z,6.94
2022-09-28T08:34:06.671Z,6.88
2022-09-28T08:36:33.531Z,6.92
2022-09-28T08:39:00.226Z,6.93
2022-09-28T08:41:53.015Z,7.00
2022-09-28T08:44:21.149Z,7.02
2022-09-28T08:46:49.789Z,7.11
2022-09-28T08:49:26.122Z,7.22
2022-09-28T08:52:14.045Z,7.30
2022-09-28T08:54:58.928Z,7.42
2022-09-28T08:57:30.174Z,7.66
2022-09-28T08:59:57.921Z,7.76
2022-09-28T09:02:31.528Z,7.71
2022-09-28T09:04:58.322Z,7.70
2022-09-28T09:07:43.747Z,7.72
2022-09-28T09:10:37.552Z,7.77
2022-09-28T09:13:08.782Z,7.79
2022-09-28T09:15:52.820Z,7.64
2022-09-28T09:18:36.384Z,7.70
2022-09-28T09:21:42.360Z,7.77
2022-09-28T09:24:21.324Z,7.97
2022-09-28T09:26:48.141Z,8.26
2022-09-28T09:29:53.224Z,8.29
2022-09-28T09:32:31.964Z,8.26
2022-09-28T09:35:23.336Z,8.27
2022-09-28T09:38:02.704Z,8.27
2022-09-28T09:40:41.614Z,8.48
2022-09-28T09:43:33.713Z,8.35
2022-09-28T09:46:12.054Z,8.30
2022-09-28T09:48:50.744Z,8.34
2022-09-28T09:51:49.804Z,8.34
2022-09-28T09:54:24.419Z,8.47
2022-09-28T09:56:55.032Z,8.66
2022-09-28T09:59:27.471Z,9.09
2022-09-28T10:01:56.049Z,9.59
2022-09-28T10:04:36.429Z,9.74
2022-09-28T10:07:05.149Z,10.00
2022-09-28T10:09:37.920Z,10.45
2022-09-28T10:12:04.645Z,10.33
2022-09-28T10:14:31.285Z,10.03
2022-09-28T10:16:58.142Z,9.67
2022-09-28T10:19:29.700Z,9.30
2022-09-28T10:21:56.333Z,9.38
2022-09-28T10:24:29.622Z,9.44
2022-09-28T10:26:56.668Z,9.31
2022-09-28T10:29:25.346Z,9.40
2022-09-28T10:31:52.993Z,9.21
2022-09-28T10:34:28.614Z,9.08
2022-09-28T10:37:00.813Z,9.21
2022-09-28T10:39:28.582Z,9.13
2022-09-28T10:41:55.589Z,9.04
2022-09-28T10:44:22.251Z,8.94
2022-09-28T10:46:56.402Z,8.93
2022-09-28T10:49:23.133Z,8.98
2022-09-28T10:51:50.987Z,9.06
2022-09-28T10:54:18.606Z,9.15
2022-09-28T10:56:45.710Z,9.15
2022-09-28T10:59:24.612Z,9.00
2022-09-28T11:02:34.758Z,8.88
2022-09-28T11:05:05.573Z,8.85
2022-09-28T11:07:33.356Z,8.81
2022-09-28T11:10:00.393Z,8.73
2022-09-28T11:12:29.205Z,8.71
2022-09-28T11:14:58.028Z,8.66
2022-09-28T11:17:32.466Z,8.70
2022-09-28T11:20:26.055Z,8.72
2022-09-28T11:22:55.761Z,8.81
2022-09-28T11:25:24.304Z,8.85
2022-09-28T11:27:50.742Z,8.93
2022-09-28T11:30:29.967Z,8.87
2022-09-28T11:33:04.928Z,9.01
2022-09-28T11:35:46.465Z,9.09
2022-09-28T11:38:38.460Z,9.09
2022-09-28T11:41:23.402Z,9.11
2022-09-28T11:44:09.192Z,9.07
2022-09-28T11:46:55.475Z,9.01
2022-09-28T11:49:54.055Z,8.95
2022-09-28T11:52:24.787Z,9.05
2022-09-28T11:54:55.006Z,9.15
2022-09-28T11:57:24.362Z,9.18
2022-09-28T11:59:59.310Z,9.21
2022-09-28T12:02:34.473Z,9.35
2022-09-28T12:05:21.857Z,9.45
2022-09-28T12:07:54.809Z,9.59
2022-09-28T12:10:32.306Z,9.92
2022-09-28T12:13:19.660Z,10.19
2022-09-28T12:16:27.611Z,10.14
2022-09-28T12:19:08.073Z,10.02
2022-09-28T12:21:46.274Z,9.72
2022-09-28T12:24:17.060Z,9.83
2022-09-28T12:26:46.692Z,9.90
2022-09-28T12:29:15.599Z,9.73
2022-09-28T12:32:07.414Z,9.74
2022-09-28T12:34:34.392Z,9.84
2022-09-28T12:37:15.168Z,9.85
2022-09-28T12:40:02.316Z,10.01
2022-09-28T12:42:38.329Z,10.09
2022-09-28T12:45:23.738Z,10.08
2022-09-28T12:48:05.477Z,10.13
2022-09-28T12:50:55.986Z,10.21
2022-09-28T12:53:45.391Z,10.14
2022-09-28T12:56:20.836Z,10.15
2022-09-28T12:59:15.542Z,10.35
2022-09-28T13:02:19.162Z,10.39
2022-09-28T13:05:19.434Z,10.32
2022-09-28T13:08:06.488Z,10.33
2022-09-28T13:10:51.584Z,10.26
2022-09-28T13:13:31.351Z,10.11
2022-09-28T13:16:15.962Z,10.00
2022-09-28T13:18:48.592Z,9.90
2022-09-28T13:21:37.173Z,9.73
2022-09-28T13:24:20.772Z,9.94
2022-09-28T13:26:50.888Z,9.99
2022-09-28T13:29:18.495Z,9.90
2022-09-28T13:31:56.451Z,10.00
2022-09-28T13:34:26.297Z,9.96
2022-09-28T13:37:14.533Z,9.87
2022-09-28T13:39:44.133Z,9.78
2022-09-28T13:42:44.420Z,9.70
2022-09-28T13:45:22.976Z,9.66
2022-09-28T13:48:14.895Z,9.72
2022-09-28T13:51:12.384Z,9.84
2022-09-28T13:53:52.295Z,10.07
2022-09-28T13:56:55.008Z,10.06
2022-09-28T13:59:25.306Z,9.94
2022-09-28T14:02:27.340Z,9.72
2022-09-28T14:04:59.027Z,9.71
2022-09-28T14:07:46.747Z,9.86
2022-09-28T14:10:24.048Z,9.73
2022-09-28T14:12:51.645Z,9.81
2022-09-28T14:15:37.034Z,9.72
2022-09-28T14:18:25.107Z,9.62
2022-09-28T14:21:29.089Z,9.68
2022-09-28T14:24:03.982Z,9.58
2022-09-28T14:27:08.611Z,9.74
2022-09-28T14:29:36.488Z,9.80
2022-09-28T14:32:09.067Z,9.72
2022-09-28T14:34:43.575Z,9.68
2022-09-28T14:37:21.869Z,9.55
2022-09-28T14:39:48.717Z,9.64
2022-09-28T14:42:17.710Z,9.60
2022-09-28T14:45:07.665Z,9.53
2022-09-28T14:47:40.917Z,9.54
2022-09-28T14:50:19.930Z,9.63
2022-09-28T14:52:47.715Z,9.54
2022-09-28T14:55:15.310Z,9.49
2022-09-28T14:57:42.637Z,9.51
2022-09-28T15:00:30.263Z,9.43
2022-09-28T15:03:00.253Z,9.43
2022-09-28T15:05:32.254Z,9.40
2022-09-28T15:07:59.133Z,9.48
2022-09-28T15:10:28.712Z,9.35
2022-09-28T15:12:55.501Z,9.29
2022-09-28T15:15:38.187Z,9.28
2022-09-28T15:18:07.812Z,9.28
2022-09-28T15:20:39.601Z,9.17
2022-09-28T15:23:25.426Z,9.01
2022-09-28T15:25:52.585Z,9.06
2022-09-28T15:28:20.095Z,9.01
2022-09-28T15:30:46.937Z,8.99
2022-09-28T15:33:33.345Z,8.87
2022-09-28T15:36:05.296Z,8.82
2022-09-28T15:38:32.103Z,8.79
2022-09-28T15:40:58.921Z,8.80
2022-09-28T15:43:29.802Z,8.71
2022-09-28T15:46:07.624Z,8.57
2022-09-28T15:48:42.449Z,8.55
2022-09-28T15:51:10.218Z,8.61
2022-09-28T15:54:00.982Z,8.53
2022-09-28T15:56:28.137Z,8.55
2022-09-28T15:59:31.284Z,8.47
2022-09-28T16:02:12.474Z,8.46
2022-09-28T16:04:47.008Z,8.46
2022-09-28T16:07:13.495Z,8.44
2022-09-28T16:10:08.557Z,8.41
2022-09-28T16:12:38.120Z,8.36
2022-09-28T16:15:06.143Z,8.21
2022-09-28T16:17:34.347Z,8.16
2022-09-28T16:20:02.023Z,8.21
2022-09-28T16:22:29.170Z,8.21
2022-09-28T16:24:58.758Z,8.20
2022-09-28T16:27:41.890Z,8.15
2022-09-28T16:30:16.848Z,8.14
2022-09-28T16:32:58.632Z,8.09
2022-09-28T16:35:26.454Z,8.07
2022-09-28T16:38:03.114Z,7.95
2022-09-28T16:40:30.372Z,7.92
2022-09-28T16:42:59.595Z,8.00
2022-09-28T16:45:26.224Z,7.85
2022-09-28T16:47:52.870Z,7.79
2022-09-28T16:50:20.576Z,7.80
2022-09-28T16:52:49.557Z,7.79
2022-09-28T16:55:39.397Z,7.74
2022-09-28T16:58:03.426Z,7.77
2022-09-28T17:00:30.068Z,7.79
2022-09-28T17:02:56.772Z,7.71
2022-09-28T17:05:26.160Z,7.65
2022-09-28T17:08:00.354Z,7.64
2022-09-28T17:11:12.611Z,7.63
2022-09-28T17:13:33.211Z,7.64
2022-09-28T17:16:01.253Z,7.64
2022-09-28T17:18:28.018Z,7.61
2022-09-28T17:20:55.858Z,7.64
2022-09-28T17:23:22.484Z,7.60
2022-09-28T17:25:49.170Z,7.59
2022-09-28T17:28:27.077Z,7.54
2022-09-28T17:30:54.123Z,7.52
2022-09-28T17:33:22.506Z,7.55
2022-09-28T17:35:49.264Z,7.52
2022-09-28T17:38:16.038Z,7.38
2022-09-28T17:40:43.411Z,7.43
2022-09-28T17:43:10.094Z,7.42
2022-09-28T17:45:37.491Z,7.37
2022-09-28T17:48:04.084Z,7.36
2022-09-28T17:50:32.552Z,7.26
2022-09-28T17:52:59.217Z,7.22
2022-09-28T17:55:27.732Z,7.23
2022-09-28T17:57:54.881Z,7.20
2022-09-28T18:00:21.858Z,7.20
2022-09-28T18:02:48.660Z,7.23
2022-09-28T18:05:15.354Z,7.24
2022-09-28T18:07:47.299Z,7.14
2022-09-28T18:10:15.637Z,7.12
2022-09-28T18:12:42.306Z,7.16
2022-09-28T18:15:09.508Z,7.15
2022-09-28T18:17:36.264Z,7.09
2022-09-28T18:20:02.918Z,7.12
2022-09-28T18:22:29.592Z,7.04
2022-09-28T18:24:56.271Z,7.04
2022-09-28T18:27:23.226Z,6.99
2022-09-28T18:29:50.006Z,7.00
2022-09-28T18:32:16.674Z,7.00
2022-09-28T18:34:43.299Z,7.01
2022-09-28T18:37:10.303Z,7.00
2022-09-28T18:39:37.237Z,7.05
2022-09-28T18:42:04.038Z,7.00
2022-09-28T18:44:30.698Z,6.96
2022-09-28T18:46:57.419Z,6.98
2022-09-28T18:49:24.404Z,6.99
2022-09-28T18:51:51.274Z,6.92
2022-09-28T18:54:18.005Z,6.89
2022-09-28T18:56:44.721Z,6.88
2022-09-28T18:59:12.415Z,7.00
2022-09-28T19:01:39.518Z,6.92
2022-09-28T19:04:07.722Z,6.85
2022-09-28T19:06:34.492Z,6.87
2022-09-28T19:09:01.265Z,6.85
2022-09-28T19:11:28.395Z,6.78
2022-09-28T19:13:55.069Z,6.79
2022-09-28T19:16:23.834Z,6.74
2022-09-28T19:18:50.609Z,6.77
2022-09-28T19:21:17.380Z,6.76
2022-09-28T19:23:48.758Z,6.73
2022-09-28T19:26:20.143Z,6.73
2022-09-28T19:28:47.296Z,6.65
2022-09-28T19:31:14.037Z,6.67
2022-09-28T19:33:40.851Z,6.64
2022-09-28T19:36:15.607Z,6.60
2022-09-28T19:38:42.374Z,6.70
2022-09-28T19:41:12.821Z,6.62
2022-09-28T19:43:39.491Z,6.65
2022-09-28T19:46:06.746Z,6.60
2022-09-28T19:48:33.805Z,6.63
2022-09-28T19:51:05.164Z,6.57
2022-09-28T19:53:33.641Z,6.62
2022-09-28T19:56:00.665Z,6.59
2022-09-28T19:58:31.755Z,6.62
2022-09-28T20:00:58.493Z,6.66
2022-09-28T20:03:25.640Z,6.58
2022-09-28T20:05:58.888Z,6.56
2022-09-28T20:08:26.097Z,6.59
2022-09-28T20:10:53.514Z,6.57
2022-09-28T20:13:23.785Z,6.59
2022-09-28T20:15:50.787Z,6.60
2022-09-28T20:18:17.388Z,6.59
2022-09-28T20:20:43.954Z,6.59
2022-09-28T20:23:10.628Z,6.62
2022-09-28T20:25:37.355Z,6.62
2022-09-28T20:28:04.853Z,6.61
2022-09-28T20:30:31.883Z,6.63
2022-09-28T20:32:58.566Z,6.63
2022-09-28T20:35:32.585Z,6.59
2022-09-28T20:37:59.884Z,6.58
2022-09-28T20:40:26.541Z,6.62
2022-09-28T20:42:53.214Z,6.50
2022-09-28T20:45:20.215Z,6.52
2022-09-28T20:47:46.871Z,6.55
2022-09-28T20:50:13.482Z,6.53
2022-09-28T20:52:40.106Z,6.55
2022-09-28T20:55:07.410Z,6.59
2022-09-28T20:57:33.976Z,6.54
2022-09-28T21:00:00.737Z,6.51
2022-09-28T21:02:27.494Z,6.53
2022-09-28T21:04:54.102Z,6.47
2022-09-28T21:07:20.735Z,6.49
2022-09-28T21:09:47.476Z,6.49
2022-09-28T21:12:14.115Z,6.50
2022-09-28T21:14:40.701Z,6.47
2022-09-28T21:17:07.341Z,6.45
2022-09-28T21:19:34.012Z,6.44
2022-09-28T21:22:00.513Z,6.41
2022-09-28T21:24:27.117Z,6.44
2022-09-28T21:26:54.049Z,6.41
2022-09-28T21:29:20.706Z,6.44
2022-09-28T21:31:47.346Z,6.52
2022-09-28T21:34:15.547Z,6.46
2022-09-28T21:36:44.176Z,6.46
2022-09-28T21:39:10.891Z,6.39
2022-09-28T21:41:37.643Z,6.43
2022-09-28T21:44:04.306Z,6.48
2022-09-28T21:46:30.995Z,6.44
2022-09-28T21:48:57.643Z,6.41
2022-09-28T21:51:24.237Z,6.42
2022-09-28T21:53:50.880Z,6.44
2022-09-28T21:56:17.541Z,6.44
2022-09-28T21:58:44.273Z,6.46
2022-09-28T22:01:12.378Z,6.50
2022-09-28T22:03:38.977Z,6.41
2022-09-28T22:06:05.970Z,6.40
2022-09-28T22:08:33.008Z,6.39
2022-09-28T22:11:00.044Z,6.43
2022-09-28T22:13:30.613Z,6.37
2022-09-28T22:15:57.838Z,6.40
2022-09-28T22:18:25.519Z,6.34
2022-09-28T22:21:12.550Z,6.36
2022-09-28T22:23:39.447Z,6.34
2022-09-28T22:26:10.855Z,6.36
2022-09-28T22:28:37.739Z,6.26
2022-09-28T22:31:04.637Z,6.21
2022-09-28T22:33:31.343Z,6.20
2022-09-28T22:35:57.969Z,6.21
2022-09-28T22:38:24.839Z,6.17
2022-09-28T22:40:52.672Z,6.15
2022-09-28T22:43:19.347Z,6.10
2022-09-28T22:45:45.941Z,6.02
2022-09-28T22:48:12.597Z,5.99
2022-09-28T22:50:39.537Z,6.05
2022-09-28T22:53:06.413Z,6.03
2022-09-28T22:55:33.125Z,6.01
2022-09-28T22:58:01.348Z,5.96
2022-09-28T23:00:28.052Z,5.99
2022-09-28T23:02:54.692Z,5.98
2022-09-28T23:05:21.585Z,5.91
2022-09-28T23:07:48.229Z,5.86
2022-09-28T23:10:14.865Z,5.90
2022-09-28T23:12:41.510Z,5.85
2022-09-28T23:15:09.064Z,5.83
2022-09-28T23:17:35.691Z,5.74
2022-09-28T23:20:02.464Z,5.74
2022-09-28T23:22:29.087Z,5.76
2022-09-28T23:24:55.713Z,5.76
2022-09-28T23:27:22.664Z,5.79
2022-09-28T23:29:49.560Z,5.73
2022-09-28T23:32:16.353Z,5.73
2022-09-28T23:34:43.441Z,5.81
2022-09-28T23:37:10.197Z,5.85
2022-09-28T23:39:36.802Z,5.79
2022-09-28T23:42:03.435Z,5.86
2022-09-28T23:44:30.218Z,5.84
2022-09-28T23:46:56.875Z,5.74
2022-09-28T23:49:23.630Z,5.76
2022-09-28T23:51:50.410Z,5.69
2022-09-28T23:54:17.289Z,5.77
2022-09-28T23:56:43.869Z,5.70
2022-09-28T23:59:10.616Z,5.76
